Time;durP1;ratioP1;P1;durP2;ratioP2;P2;SDS_P1;SDS_P2;PMS_P1;PMS_P2;Temp;Humidity;BMP_temperature;BMP_pressure;BME280_temperature;BME280_humidity;BME280_pressure;Samples;Min_cycle;Max_cycle;Signal;HPM_P1;HPM_P2
2023/04/19 00:00:16;;;;;;;;;;;;;;;9.11;100.00;102357.38;10365998;28;19926;-77
2023/04/19 00:05:17;;;;;;;;;;;;;;;9.19;100.00;102358.00;10370175;28;19929;-77
2023/04/19 00:10:17;;;;;;;;;;;;;;;9.27;100.00;102345.50;10343144;28;19964;-77
2023/04/19 00:15:18;;;;;;;;;;;;;;;9.31;100.00;102349.28;10365546;28;20012;-77
2023/04/19 00:20:19;;;;;;;;;;;;;;;9.39;100.00;102356.00;10369286;28;19928;-76
2023/04/19 00:25:19;;;;;;;;;;;;;;;9.42;100.00;102344.88;10365455;28;19921;-77
2023/04/19 00:30:19;;;;;;;;;;;;;;;9.42;100.00;102344.88;10365876;28;19944;-77
2023/04/19 00:35:20;;;;;;;;;;;;;;;9.42;100.00;102356.25;10391031;28;19921;-78
2023/04/19 00:40:20;;;;;;;;;;;;;;;9.41;100.00;102357.03;10365166;28;19922;-77
2023/04/19 00:45:20;;;;;;;;;;;;;;;9.39;100.00;102340.34;10364892;28;19923;-77
2023/04/19 00:50:21;;;;;;;;;;;;;;;9.35;100.00;102351.34;10365433;28;19921;-77
2023/04/19 00:55:21;;;;;;;;;;;;;;;9.43;100.00;102355.44;10396946;28;19925;-77
2023/04/19 01:00:22;;;;;;;;;;;;;;;9.40;100.00;102350.88;10405211;28;19925;-77
2023/04/19 01:05:22;;;;;;;;;;;;;;;9.42;100.00;102334.41;10367341;28;19921;-77
2023/04/19 01:10:22;;;;;;;;;;;;;;;9.37;100.00;102341.91;10381629;28;19921;-77
2023/04/19 01:15:23;;;;;;;;;;;;;;;9.33;100.00;102340.75;10368000;28;19987;-77
2023/04/19 01:20:23;;;;;;;;;;;;;;;9.31;100.00;102334.50;10362544;28;19921;-77
2023/04/19 01:25:23;;;;;;;;;;;;;;;9.29;100.00;102336.09;10363740;28;19922;-77
2023/04/19 01:30:24;;;;;;;;;;;;;;;9.29;100.00;102329.97;10370734;28;19971;-77
2023/04/19 01:35:24;;;;;;;;;;;;;;;9.29;100.00;102333.47;10363403;28;19922;-77
2023/04/19 01:40:25;;;;;;;;;;;;;;;9.32;100.00;102332.81;10363225;28;19928;-77
2023/04/19 01:45:25;;;;;;;;;;;;;;;9.34;100.00;102323.41;10387764;28;20399;-77
2023/04/19 01:50:25;;;;;;;;;;;;;;;9.30;100.00;102319.63;10379043;28;19985;-78
2023/04/19 01:55:26;;;;;;;;;;;;;;;9.31;100.00;102328.38;10362103;28;19921;-78
2023/04/19 02:00:26;;;;;;;;;;;;;;;9.16;100.00;102326.41;10372425;28;20016;-78
2023/04/19 02:05:26;;;;;;;;;;;;;;;9.11;100.00;102318.22;10367903;28;19926;-77
2023/04/19 02:10:27;;;;;;;;;;;;;;;9.15;100.00;102313.22;10345204;28;19922;-78
2023/04/19 02:15:27;;;;;;;;;;;;;;;9.03;100.00;102310.59;10361761;28;20025;-77
2023/04/19 02:20:27;;;;;;;;;;;;;;;8.90;100.00;102306.13;10362121;28;19917;-78
2023/04/19 02:25:28;;;;;;;;;;;;;;;8.76;100.00;102313.78;10362330;28;20357;-78
2023/04/19 02:30:28;;;;;;;;;;;;;;;8.50;100.00;102309.13;10362119;28;20015;-78
2023/04/19 02:35:28;;;;;;;;;;;;;;;8.29;100.00;102317.03;10369532;28;19921;-77
2023/04/19 02:40:29;;;;;;;;;;;;;;;8.05;100.00;102306.44;10361259;28;19922;-79
2023/04/19 02:45:30;;;;;;;;;;;;;;;7.78;100.00;102307.69;10360879;28;19983;-77
2023/04/19 02:50:31;;;;;;;;;;;;;;;7.73;100.00;102309.94;10361648;28;19917;-77
2023/04/19 02:55:31;;;;;;;;;;;;;;;7.67;100.00;102309.44;10367407;28;19925;-77
2023/04/19 03:00:31;;;;;;;;;;;;;;;7.58;100.00;102308.69;10343987;28;20016;-77
2023/04/19 03:05:31;;;;;;;;;;;;;;;7.52;100.00;102322.09;10371451;28;19957;-77
2023/04/19 03:10:32;;;;;;;;;;;;;;;7.59;100.00;102302.69;10373340;28;19964;-77
2023/04/19 03:15:32;;;;;;;;;;;;;;;7.80;100.00;102311.34;10374239;28;19925;-77
2023/04/19 03:20:33;;;;;;;;;;;;;;;7.97;100.00;102312.75;10373552;28;19922;-77
2023/04/19 03:25:33;;;;;;;;;;;;;;;8.12;100.00;102317.38;10374242;28;19925;-77
2023/04/19 03:30:33;;;;;;;;;;;;;;;8.26;100.00;102308.03;10374069;28;20349;-77
2023/04/19 03:35:34;;;;;;;;;;;;;;;8.35;100.00;102296.66;10374322;28;19928;-77
2023/04/19 03:40:36;;;;;;;;;;;;;;;8.40;100.00;102302.22;10371802;28;19922;-77
2023/04/19 03:45:36;;;;;;;;;;;;;;;8.47;100.00;102287.97;10407720;28;19917;-77
2023/04/19 03:50:36;;;;;;;;;;;;;;;8.42;100.00;102285.00;10388447;28;19944;-77
2023/04/19 03:55:37;;;;;;;;;;;;;;;8.41;100.00;102280.56;10373109;28;20365;-77
2023/04/19 04:00:37;;;;;;;;;;;;;;;8.52;100.00;102291.91;10374037;28;19925;-77
2023/04/19 04:05:37;;;;;;;;;;;;;;;8.70;100.00;102297.63;10373037;28;20016;-76
2023/04/19 04:10:37;;;;;;;;;;;;;;;8.87;100.00;102298.03;10371904;28;20254;-78
2023/04/19 04:15:38;;;;;;;;;;;;;;;9.00;100.00;102300.81;10368882;28;19925;-77
2023/04/19 04:20:38;;;;;;;;;;;;;;;9.14;100.00;102282.66;10365840;28;19976;-77
2023/04/19 04:25:39;;;;;;;;;;;;;;;9.13;100.00;102292.22;10365355;28;19922;-77
2023/04/19 04:30:40;;;;;;;;;;;;;;;9.12;100.00;102287.78;10372710;28;19927;-78
2023/04/19 04:35:42;;;;;;;;;;;;;;;9.08;100.00;102296.19;10359917;28;19944;-77
2023/04/19 04:40:42;;;;;;;;;;;;;;;9.03;100.00;102294.94;10362719;28;19921;-78
2023/04/19 04:45:43;;;;;;;;;;;;;;;9.05;100.00;102294.22;10358232;28;19928;-76
2023/04/19 04:50:43;;;;;;;;;;;;;;;9.04;100.00;102300.25;10321505;28;19971;-77
2023/04/19 04:55:44;;;;;;;;;;;;;;;9.06;100.00;102293.44;10363294;28;19921;-76
2023/04/19 05:00:44;;;;;;;;;;;;;;;9.07;100.00;102302.19;10364405;28;20016;-77
2023/04/19 05:05:47;;;;;;;;;;;;;;;9.07;100.00;102307.44;10344636;28;20392;-77
2023/04/19 05:10:47;;;;;;;;;;;;;;;9.09;100.00;102308.47;10363390;28;19924;-77
2023/04/19 05:15:48;;;;;;;;;;;;;;;9.06;100.00;102306.50;10361415;28;19921;-76
2023/04/19 05:20:48;;;;;;;;;;;;;;;9.11;100.00;102304.25;10364768;28;20273;-79
2023/04/19 05:25:48;;;;;;;;;;;;;;;9.18;100.00;102310.84;10373697;28;20016;-77
2023/04/19 05:30:49;;;;;;;;;;;;;;;9.24;100.00;102308.69;10362624;28;19921;-80
2023/04/19 05:35:49;;;;;;;;;;;;;;;9.47;100.00;102297.41;10361686;28;19925;-79
2023/04/19 05:40:49;;;;;;;;;;;;;;;10.17;100.00;102298.94;10386694;28;19952;-78
2023/04/19 05:45:50;;;;;;;;;;;;;;;10.69;100.00;102297.47;10379465;28;19953;-78
2023/04/19 05:50:53;;;;;;;;;;;;;;;11.13;100.00;102290.84;10391179;28;20383;-78
2023/04/19 05:55:53;;;;;;;;;;;;;;;11.24;100.00;102294.22;10376362;28;19927;-77
2023/04/19 06:00:53;;;;;;;;;;;;;;;11.64;100.00;102297.69;10360934;28;20357;-77
2023/04/19 06:05:54;;;;;;;;;;;;;;;13.00;100.00;102298.41;10358388;28;19921;-77
2023/04/19 06:10:55;;;;;;;;;;;;;;;14.02;100.00;102292.91;10359125;28;20012;-77
2023/04/19 06:15:55;;;;;;;;;;;;;;;14.89;100.00;102300.25;10360686;28;20350;-76
2023/04/19 06:20:56;;;;;;;;;;;;;;;15.30;86.33;102295.34;10380315;28;19921;-77
2023/04/19 06:25:56;;;;;;;;;;;;;;;15.95;81.26;102298.56;10360395;28;20452;-77
2023/04/19 06:30:57;;;;;;;;;;;;;;;16.33;76.78;102295.94;10359117;28;19925;-77
2023/04/19 06:35:57;;;;;;;;;;;;;;;16.47;70.10;102307.16;10356522;28;19929;-77
2023/04/19 06:40:57;;;;;;;;;;;;;;;15.65;74.27;102290.94;10348353;28;19921;-77
2023/04/19 06:45:58;;;;;;;;;;;;;;;15.80;72.14;102281.94;10337343;28;19922;-77
2023/04/19 06:50:58;;;;;;;;;;;;;;;16.94;67.23;102288.97;10319548;28;19924;-78
2023/04/19 06:55:59;;;;;;;;;;;;;;;16.78;63.87;102283.84;10319741;28;19925;-79
2023/04/19 07:01:00;;;;;;;;;;;;;;;17.19;66.35;102289.19;10318536;28;19941;-78
2023/04/19 07:06:00;;;;;;;;;;;;;;;17.67;61.30;102285.88;10327532;28;19921;-79
2023/04/19 07:11:01;;;;;;;;;;;;;;;17.69;58.89;102289.50;10331347;28;19921;-79
2023/04/19 07:16:03;;;;;;;;;;;;;;;17.78;58.06;102289.88;10340898;28;19971;-77
2023/04/19 07:21:03;;;;;;;;;;;;;;;18.15;57.51;102287.84;10370971;28;19924;-77
2023/04/19 07:26:03;;;;;;;;;;;;;;;19.19;53.55;102289.91;10348250;28;20308;-78
2023/04/19 07:31:04;;;;;;;;;;;;;;;19.57;50.04;102288.50;10343521;28;19921;-78
2023/04/19 07:36:05;;;;;;;;;;;;;;;19.49;51.67;102291.78;10346833;28;19921;-78
2023/04/19 07:41:06;;;;;;;;;;;;;;;19.75;47.70;102293.50;10356656;28;19925;-78
2023/04/19 07:46:09;;;;;;;;;;;;;;;19.28;48.45;102289.31;10358835;28;19929;-77
2023/04/19 07:51:10;;;;;;;;;;;;;;;19.19;46.32;102287.25;10368669;28;19925;-78
2023/04/19 07:56:11;;;;;;;;;;;;;;;19.70;46.24;102300.41;10364756;28;20401;-78
2023/04/19 08:01:11;;;;;;;;;;;;;;;20.16;45.54;102291.28;10330729;28;20309;-78
2023/04/19 08:06:13;;;;;;;;;;;;;;;19.55;43.64;102282.22;10358940;28;19929;-78
2023/04/19 08:11:13;;;;;;;;;;;;;;;19.76;43.01;102274.03;10357470;28;19925;-79
2023/04/19 08:16:13;;;;;;;;;;;;;;;19.86;41.62;102273.47;10353172;28;19921;-79
2023/04/19 08:21:14;;;;;;;;;;;;;;;19.90;43.13;102279.84;10360028;28;20495;-77
2023/04/19 08:26:14;;;;;;;;;;;;;;;19.70;44.37;102279.16;10365161;28;19921;-79
2023/04/19 08:31:14;;;;;;;;;;;;;;;19.40;42.21;102274.63;10394672;28;19928;-79
2023/04/19 08:36:15;;;;;;;;;;;;;;;19.04;43.96;102266.38;10378208;28;19927;-80
2023/04/19 08:41:15;;;;;;;;;;;;;;;20.38;41.95;102265.31;10363786;28;19921;-79
2023/04/19 08:46:16;;;;;;;;;;;;;;;20.09;40.10;102273.34;10362079;28;19974;-78
2023/04/19 08:51:16;;;;;;;;;;;;;;;20.59;42.16;102265.06;10364717;28;19974;-79
2023/04/19 08:56:16;;;;;;;;;;;;;;;20.53;40.95;102259.56;10368371;28;20403;-78
2023/04/19 09:01:17;;;;;;;;;;;;;;;21.37;36.66;102259.16;10360522;28;19951;-78
2023/04/19 09:06:17;;;;;;;;;;;;;;;20.49;39.42;102250.59;10364190;28;20357;-78
2023/04/19 09:11:19;;;;;;;;;;;;;;;21.45;39.68;102254.00;10364866;28;19929;-78
2023/04/19 09:16:25;;;;;;;;;;;;;;;20.48;39.48;102251.44;10363217;28;19921;-78
2023/04/19 09:21:29;;;;;;;;;;;;;;;20.88;38.37;102248.13;10382994;28;19921;-77
2023/04/19 09:26:30;;;;;;;;;;;;;;;21.29;37.36;102234.09;10362048;28;19943;-77
2023/04/19 09:31:30;;;;;;;;;;;;;;;21.12;37.10;102242.56;10365994;28;19928;-79
2023/04/19 09:36:31;;;;;;;;;;;;;;;20.90;37.26;102246.41;10357417;28;20028;-79
2023/04/19 09:41:32;;;;;;;;;;;;;;;20.96;37.57;102249.22;10367581;28;20049;-79
2023/04/19 09:46:33;;;;;;;;;;;;;;;21.41;35.81;102229.97;10361014;28;20005;-79
2023/04/19 09:51:40;;;;;;;;;;;;;;;21.66;34.77;102243.91;10365943;28;20422;-80
2023/04/19 09:56:40;;;;;;;;;;;;;;;21.44;34.20;102231.81;10393942;28;19925;-79
2023/04/19 10:01:44;;;;;;;;;;;;;;;21.34;34.96;102237.78;10402215;28;19971;-79
2023/04/19 10:06:45;;;;;;;;;;;;;;;21.16;32.73;102239.13;10399542;28;19925;-79
2023/04/19 10:11:48;;;;;;;;;;;;;;;21.50;32.05;102225.72;10401817;28;19940;-79
2023/04/19 10:16:49;;;;;;;;;;;;;;;21.42;32.69;102239.75;10398986;28;19943;-79
2023/04/19 10:21:50;;;;;;;;;;;;;;;22.04;31.96;102228.75;10401492;28;19917;-79
2023/04/19 10:27:12;;;;;;;;;;;;;;;21.71;31.77;102226.25;10394273;28;19921;-80
2023/04/19 10:32:13;;;;;;;;;;;;;;;20.85;32.59;102214.38;10392162;28;19971;-79
2023/04/19 10:37:13;;;;;;;;;;;;;;;20.70;30.96;102217.47;10369038;28;19925;-80
2023/04/19 10:42:14;;;;;;;;;;;;;;;20.47;30.73;102223.06;10397483;28;20342;-80
2023/04/19 10:47:21;;;;;;;;;;;;;;;20.74;31.21;102208.72;10398059;28;20011;-79
2023/04/19 10:52:25;;;;;;;;;;;;;;;20.55;30.00;102202.00;10400840;28;20369;-79
2023/04/19 10:57:26;;;;;;;;;;;;;;;21.31;29.00;102196.00;10389707;28;20006;-79
2023/04/19 11:02:27;;;;;;;;;;;;;;;21.53;28.31;102194.75;10396240;28;20432;-79
2023/04/19 11:07:28;;;;;;;;;;;;;;;21.47;27.00;102196.34;10394270;28;19921;-80
2023/04/19 11:12:28;;;;;;;;;;;;;;;20.51;29.54;102194.81;10356010;28;19937;-79
2023/04/19 11:17:30;;;;;;;;;;;;;;;20.30;30.52;102200.41;10339117;28;19925;-79
2023/04/19 11:22:31;;;;;;;;;;;;;;;19.89;28.54;102187.69;10365389;28;19921;-78
2023/04/19 11:27:32;;;;;;;;;;;;;;;19.94;27.87;102189.63;10367578;28;19967;-79
2023/04/19 11:32:32;;;;;;;;;;;;;;;20.63;29.00;102171.19;10366134;28;20328;-77
2023/04/19 11:37:36;;;;;;;;;;;;;;;20.02;30.42;102175.69;10330661;28;20263;-78
2023/04/19 11:42:36;;;;;;;;;;;;;;;20.70;27.87;102172.25;10309119;28;19921;-78
2023/04/19 11:47:46;;;;;;;;;;;;;;;20.75;29.32;102153.75;10327474;28;19922;-78
2023/04/19 11:52:49;;;;;;;;;;;;;;;21.01;28.78;102164.22;10327217;28;20064;-78
2023/04/19 11:57:50;;;;;;;;;;;;;;;20.13;26.92;102152.97;10324838;28;20416;-78
2023/04/19 12:02:50;;;;;;;;;;;;;;;20.71;29.93;102152.78;10327635;28;19933;-78
2023/04/19 12:08:00;;;;;;;;;;;;;;;21.39;28.17;102141.16;10326003;28;20004;-78
2023/04/19 12:13:01;;;;;;;;;;;;;;;21.89;26.81;102136.06;10353439;28;20011;-78
2023/04/19 12:18:01;;;;;;;;;;;;;;;20.81;25.55;102130.91;10388658;28;20024;-78
2023/04/19 12:23:02;;;;;;;;;;;;;;;20.35;24.73;102140.28;10407046;28;20538;-78
2023/04/19 12:28:03;;;;;;;;;;;;;;;20.56;25.54;102124.03;10406737;28;20404;-78
2023/04/19 12:33:03;;;;;;;;;;;;;;;20.88;26.75;102128.38;10405674;28;19924;-78
2023/04/19 12:38:04;;;;;;;;;;;;;;;20.23;26.85;102136.44;10404608;28;20339;-78
2023/04/19 12:43:05;;;;;;;;;;;;;;;20.73;25.90;102129.78;10385558;28;20284;-80
2023/04/19 12:48:05;;;;;;;;;;;;;;;20.79;27.67;102121.09;10357327;28;19925;-78
2023/04/19 12:53:07;;;;;;;;;;;;;;;20.70;25.98;102111.06;10356565;28;19922;-77
2023/04/19 12:58:07;;;;;;;;;;;;;;;20.71;27.74;102102.22;10363976;28;20388;-78
2023/04/19 13:03:07;;;;;;;;;;;;;;;20.68;24.95;102096.84;10347057;28;19921;-79
2023/04/19 13:08:08;;;;;;;;;;;;;;;20.51;25.58;102096.41;10362556;28;20292;-77
2023/04/19 13:13:08;;;;;;;;;;;;;;;20.69;25.01;102085.34;10363162;28;20591;-79
2023/04/19 13:18:08;;;;;;;;;;;;;;;20.90;25.25;102084.09;10360693;28;19921;-78
2023/04/19 13:23:09;;;;;;;;;;;;;;;21.19;25.30;102075.91;10362713;28;20331;-79
2023/04/19 13:28:09;;;;;;;;;;;;;;;20.88;25.03;102048.56;10363135;28;19975;-78
2023/04/19 13:33:09;;;;;;;;;;;;;;;20.71;26.26;102057.00;10363563;28;19918;-78
2023/04/19 13:38:10;;;;;;;;;;;;;;;20.68;26.04;102059.59;10361615;28;20373;-78
2023/04/19 13:43:10;;;;;;;;;;;;;;;20.84;27.76;102066.25;10346022;28;19979;-78
2023/04/19 13:48:11;;;;;;;;;;;;;;;20.23;25.94;102045.19;10362872;28;19917;-79
2023/04/19 13:53:11;;;;;;;;;;;;;;;20.27;26.28;102049.72;10362898;28;19917;-78
2023/04/19 13:58:11;;;;;;;;;;;;;;;20.28;25.20;102034.66;10400145;28;19924;-78
2023/04/19 14:03:12;;;;;;;;;;;;;;;20.00;26.04;102026.88;10402418;28;20257;-78
2023/04/19 14:08:12;;;;;;;;;;;;;;;19.87;26.58;102028.22;10401961;28;19923;-78
2023/04/19 14:13:12;;;;;;;;;;;;;;;20.35;26.97;102013.59;10402432;28;19920;-78
2023/04/19 14:18:13;;;;;;;;;;;;;;;19.75;26.14;102010.22;10401704;28;20407;-79
2023/04/19 14:23:13;;;;;;;;;;;;;;;19.90;26.82;102008.88;10402989;28;19917;-79
2023/04/19 14:28:13;;;;;;;;;;;;;;;19.89;26.16;101994.69;10401720;28;20346;-79
2023/04/19 14:33:14;;;;;;;;;;;;;;;19.64;26.45;101988.66;10367482;28;19913;-79
2023/04/19 14:38:14;;;;;;;;;;;;;;;19.90;26.66;101980.53;10360130;28;19960;-79
2023/04/19 14:43:17;;;;;;;;;;;;;;;19.75;27.81;101977.44;10340705;28;19928;-78
2023/04/19 14:48:18;;;;;;;;;;;;;;;19.46;29.05;101981.09;10347413;28;19953;-78
2023/04/19 14:53:19;;;;;;;;;;;;;;;19.19;29.28;101976.78;10359548;28;20063;-79
2023/04/19 14:58:19;;;;;;;;;;;;;;;18.45;29.79;101977.09;10360798;28;19926;-78
2023/04/19 15:03:19;;;;;;;;;;;;;;;17.95;31.16;101970.09;10361303;28;19924;-79
2023/04/19 15:08:20;;;;;;;;;;;;;;;18.08;30.25;101965.25;10358125;28;20285;-78
2023/04/19 15:13:20;;;;;;;;;;;;;;;17.47;32.32;101960.44;10383260;28;19920;-78
2023/04/19 15:18:20;;;;;;;;;;;;;;;17.39;31.01;101957.53;10398152;28;19917;-78
2023/04/19 15:23:24;;;;;;;;;;;;;;;16.72;34.01;101969.94;10325407;28;20255;-78
2023/04/19 15:28:24;;;;;;;;;;;;;;;16.71;32.18;101950.50;10360109;28;19965;-79
2023/04/19 15:33:25;;;;;;;;;;;;;;;16.84;33.01;101945.69;10358672;28;20654;-78
2023/04/19 15:38:26;;;;;;;;;;;;;;;16.78;33.22;101932.25;10358302;28;20313;-78
2023/04/19 15:43:26;;;;;;;;;;;;;;;16.44;33.46;101935.34;10359897;28;20276;-79
2023/04/19 15:48:27;;;;;;;;;;;;;;;15.26;34.34;101942.59;10359682;28;19996;-77
2023/04/19 15:53:27;;;;;;;;;;;;;;;14.62;36.95;101941.34;10368721;28;20006;-78
2023/04/19 15:58:27;;;;;;;;;;;;;;;14.34;37.15;101927.72;10401278;28;20443;-78
2023/04/19 16:03:28;;;;;;;;;;;;;;;14.22;38.15;101932.38;10380441;28;19921;-78
2023/04/19 16:08:28;;;;;;;;;;;;;;;14.25;39.65;101929.91;10359830;28;19917;-77
2023/04/19 16:13:28;;;;;;;;;;;;;;;14.12;38.52;101935.38;10366325;28;19921;-77
2023/04/19 16:18:29;;;;;;;;;;;;;;;13.88;37.58;101931.59;10365936;28;20410;-78
2023/04/19 16:23:29;;;;;;;;;;;;;;;13.60;37.51;101924.00;10365830;28;19921;-77
2023/04/19 16:28:30;;;;;;;;;;;;;;;13.44;37.31;101930.19;10366161;28;19944;-77
2023/04/19 16:33:30;;;;;;;;;;;;;;;13.33;38.74;101919.97;10365606;28;19921;-77
2023/04/19 16:38:30;;;;;;;;;;;;;;;13.21;37.34;101924.59;10365851;28;20016;-77
2023/04/19 16:43:31;;;;;;;;;;;;;;;12.99;36.81;101918.16;10367739;28;19928;-77
2023/04/19 16:48:31;;;;;;;;;;;;;;;12.83;38.94;101911.16;10363758;28;19955;-77
2023/04/19 16:53:31;;;;;;;;;;;;;;;12.73;38.26;101919.34;10364647;28;20292;-77
2023/04/19 16:58:32;;;;;;;;;;;;;;;12.76;39.08;101916.88;10366466;28;19925;-77
2023/04/19 17:03:32;;;;;;;;;;;;;;;12.70;38.90;101916.53;10378815;28;19949;-77
2023/04/19 17:08:33;;;;;;;;;;;;;;;12.62;39.65;101910.88;10350848;28;19925;-77
2023/04/19 17:13:33;;;;;;;;;;;;;;;12.52;40.44;101905.94;10362962;28;20364;-77
2023/04/19 17:18:33;;;;;;;;;;;;;;;12.44;40.31;101902.84;10374534;28;19974;-77
2023/04/19 17:23:33;;;;;;;;;;;;;;;12.32;40.34;101900.44;10363412;28;20008;-77
2023/04/19 17:28:34;;;;;;;;;;;;;;;12.10;39.16;101900.91;10363986;28;19922;-77
2023/04/19 17:33:34;;;;;;;;;;;;;;;11.97;39.17;101897.53;10360267;28;19925;-77
2023/04/19 17:38:35;;;;;;;;;;;;;;;11.77;38.67;101901.63;10352240;28;20362;-77
2023/04/19 17:43:36;;;;;;;;;;;;;;;11.58;39.62;101900.53;10362533;28;19968;-78
2023/04/19 17:48:36;;;;;;;;;;;;;;;11.51;39.66;101903.59;10362931;28;20063;-77
2023/04/19 17:53:36;;;;;;;;;;;;;;;11.41;38.33;101909.09;10363828;28;20420;-78
2023/04/19 17:58:37;;;;;;;;;;;;;;;11.21;39.62;101911.41;10363078;28;20291;-78
2023/04/19 18:03:37;;;;;;;;;;;;;;;11.05;39.34;101909.53;10362176;28;19921;-77
2023/04/19 18:08:37;;;;;;;;;;;;;;;10.89;40.45;101915.53;10363817;28;19921;-77
2023/04/19 18:13:38;;;;;;;;;;;;;;;10.68;40.66;101913.38;10361779;28;19921;-78
2023/04/19 18:18:38;;;;;;;;;;;;;;;10.54;41.76;101914.19;10362260;28;19932;-77
2023/04/19 18:23:38;;;;;;;;;;;;;;;10.44;40.84;101923.16;10362114;28;20359;-77
2023/04/19 18:28:39;;;;;;;;;;;;;;;10.25;41.07;101924.53;10362824;28;20296;-77
2023/04/19 18:33:39;;;;;;;;;;;;;;;10.09;41.05;101925.22;10361303;28;20046;-77
2023/04/19 18:38:39;;;;;;;;;;;;;;;9.88;41.56;101934.25;10360729;28;19926;-77
2023/04/19 18:43:40;;;;;;;;;;;;;;;9.83;41.63;101936.53;10361292;28;20285;-77
2023/04/19 18:48:41;;;;;;;;;;;;;;;9.65;42.46;101941.44;10360987;28;19917;-77
2023/04/19 18:53:41;;;;;;;;;;;;;;;9.50;42.24;101943.88;10358434;28;20349;-77
2023/04/19 18:58:42;;;;;;;;;;;;;;;9.33;43.16;101945.34;10349062;28;20004;-77
2023/04/19 19:03:42;;;;;;;;;;;;;;;9.20;42.72;101954.00;10374747;28;20273;-78
2023/04/19 19:08:42;;;;;;;;;;;;;;;9.23;43.60;101964.66;10342188;28;19928;-77
2023/04/19 19:13:43;;;;;;;;;;;;;;;9.03;43.81;101966.78;10350617;28;19971;-76
2023/04/19 19:18:43;;;;;;;;;;;;;;;8.88;43.94;101968.28;10375748;28;19929;-77
2023/04/19 19:23:43;;;;;;;;;;;;;;;8.87;44.33;101967.38;10360719;28;19917;-77
2023/04/19 19:28:44;;;;;;;;;;;;;;;8.81;44.29;101977.38;10359782;28;19928;-77
2023/04/19 19:33:45;;;;;;;;;;;;;;;8.78;45.67;101977.16;10364514;28;20246;-77
2023/04/19 19:38:45;;;;;;;;;;;;;;;8.57;45.22;101979.09;10396696;28;19929;-77
2023/04/19 19:43:46;;;;;;;;;;;;;;;8.32;47.78;101972.94;10359868;28;20404;-77
2023/04/19 19:48:46;;;;;;;;;;;;;;;8.06;47.14;101977.13;10346804;28;19921;-78
2023/04/19 19:53:46;;;;;;;;;;;;;;;7.81;50.27;101987.34;10395682;28;19920;-77
2023/04/19 19:58:46;;;;;;;;;;;;;;;7.66;49.84;101996.59;10367717;28;19921;-77
2023/04/19 20:03:47;;;;;;;;;;;;;;;7.49;49.03;101998.78;10367011;28;19925;-77
2023/04/19 20:08:48;;;;;;;;;;;;;;;7.41;51.16;102005.09;10368710;28;19987;-77
2023/04/19 20:13:49;;;;;;;;;;;;;;;7.14;53.38;102009.94;10367604;28;19959;-77
2023/04/19 20:18:49;;;;;;;;;;;;;;;7.07;52.42;102011.16;10367091;28;19961;-77
2023/04/19 20:23:50;;;;;;;;;;;;;;;7.07;56.08;102013.75;10348297;28;20001;-77
2023/04/19 20:28:51;;;;;;;;;;;;;;;6.77;55.26;102007.91;10404994;28;19928;-77
2023/04/19 20:33:52;;;;;;;;;;;;;;;6.60;56.93;102009.09;10406912;28;19917;-77
2023/04/19 20:38:52;;;;;;;;;;;;;;;6.45;57.07;102012.25;10367781;28;19929;-77
2023/04/19 20:43:58;;;;;;;;;;;;;;;6.74;57.37;102011.13;10365075;28;19921;-77
2023/04/19 20:48:58;;;;;;;;;;;;;;;6.89;56.53;102005.38;10366675;28;19956;-76
2023/04/19 20:53:59;;;;;;;;;;;;;;;7.06;54.97;102014.53;10365625;28;20008;-77
2023/04/19 20:58:59;;;;;;;;;;;;;;;7.17;55.11;102013.72;10362611;28;19943;-77
2023/04/19 21:03:59;;;;;;;;;;;;;;;7.16;54.65;102013.56;10364493;28;20324;-77
2023/04/19 21:09:00;;;;;;;;;;;;;;;7.14;54.65;102016.06;10365687;28;20289;-77
2023/04/19 21:14:00;;;;;;;;;;;;;;;7.03;56.07;102015.19;10364733;28;19921;-77
2023/04/19 21:19:00;;;;;;;;;;;;;;;6.81;56.71;102020.38;10362630;28;19928;-77
2023/04/19 21:24:01;;;;;;;;;;;;;;;6.86;57.00;102015.53;10363712;28;19939;-77
2023/04/19 21:29:01;;;;;;;;;;;;;;;6.81;57.05;102011.63;10364543;28;19937;-77
2023/04/19 21:34:02;;;;;;;;;;;;;;;6.71;58.26;102017.81;10365659;28;20340;-77
2023/04/19 21:39:02;;;;;;;;;;;;;;;6.67;57.32;102016.63;10363902;28;19921;-77
2023/04/19 21:44:03;;;;;;;;;;;;;;;6.73;58.07;102017.13;10363378;28;20369;-77
2023/04/19 21:49:03;;;;;;;;;;;;;;;6.67;58.49;102018.34;10363076;28;19921;-77
2023/04/19 21:54:03;;;;;;;;;;;;;;;6.55;60.34;102013.94;10363422;28;20379;-78
2023/04/19 21:59:04;;;;;;;;;;;;;;;6.54;59.64;102016.41;10363803;28;19922;-77
2023/04/19 22:04:04;;;;;;;;;;;;;;;6.42;61.33;102018.91;10362936;28;20270;-77
2023/04/19 22:09:05;;;;;;;;;;;;;;;6.34;61.59;102017.38;10385529;28;19928;-77
2023/04/19 22:14:05;;;;;;;;;;;;;;;6.17;63.63;102020.34;10403809;28;19925;-77
2023/04/19 22:19:06;;;;;;;;;;;;;;;6.12;63.48;102008.66;10366547;28;20016;-78
2023/04/19 22:24:07;;;;;;;;;;;;;;;5.99;64.62;102005.78;10362447;28;19917;-77
2023/04/19 22:29:07;;;;;;;;;;;;;;;6.00;64.50;102005.97;10361882;28;19926;-77
2023/04/19 22:34:07;;;;;;;;;;;;;;;6.00;65.01;102003.38;10361997;28;19921;-78
2023/04/19 22:39:08;;;;;;;;;;;;;;;5.92;65.86;101995.66;10360518;28;19937;-77
2023/04/19 22:44:08;;;;;;;;;;;;;;;5.85;66.46;101996.84;10360825;28;19921;-77
2023/04/19 22:49:08;;;;;;;;;;;;;;;5.78;65.57;101982.41;10361336;28;20329;-77
2023/04/19 22:54:09;;;;;;;;;;;;;;;5.78;67.61;101990.19;10364128;28;19929;-76
2023/04/19 22:59:09;;;;;;;;;;;;;;;5.63;67.83;101989.81;10377420;28;19920;-77
2023/04/19 23:04:12;;;;;;;;;;;;;;;5.53;66.80;101971.63;10358585;28;20060;-77
2023/04/19 23:09:13;;;;;;;;;;;;;;;5.54;68.23;101982.13;10355727;28;19922;-77
2023/04/19 23:14:17;;;;;;;;;;;;;;;5.51;67.27;101966.28;10345825;28;19932;-77
2023/04/19 23:19:17;;;;;;;;;;;;;;;5.51;67.30;101960.19;10357492;28;19925;-78
2023/04/19 23:24:18;;;;;;;;;;;;;;;5.37;70.63;101962.50;10367690;28;19917;-78
2023/04/19 23:29:18;;;;;;;;;;;;;;;5.23;70.19;101957.81;10365980;28;19922;-78
2023/04/19 23:34:19;;;;;;;;;;;;;;;5.13;72.21;101954.41;10392918;28;19924;-77
2023/04/19 23:39:19;;;;;;;;;;;;;;;4.98;73.54;101956.56;10370050;28;19922;-78
2023/04/19 23:44:20;;;;;;;;;;;;;;;4.83;74.92;101950.03;10368398;28;20015;-78
2023/04/19 23:49:20;;;;;;;;;;;;;;;4.72;76.44;101945.56;10367914;28;19928;-78
2023/04/19 23:54:24;;;;;;;;;;;;;;;4.59;79.29;101946.19;10366618;28;19925;-78
2023/04/19 23:59:27;;;;;;;;;;;;;;;4.49;81.27;101928.88;10368233;28;20253;-78
